Time;durP1;ratioP1;P1;durP2;ratioP2;P2;SDS_P1;SDS_P2;PMS_P1;PMS_P2;Temp;Humidity;BMP_temperature;BMP_pressure;BME280_temperature;BME280_humidity;BME280_pressure;Samples;Min_cycle;Max_cycle;Signal;HPM_P1;HPM_P2
2023/07/30 00:01:26;;;;;;;8.40;3.20;;;;;;;14.33;100.00;100783.00;5009994;28;20088;-60
2023/07/30 00:03:51;;;;;;;6.50;3.08;;;;;;;14.33;100.00;100780.38;5009395;28;20021;-60
2023/07/30 00:06:16;;;;;;;5.93;2.30;;;;;;;14.36;100.00;100781.31;5008758;28;20034;-60
2023/07/30 00:08:42;;;;;;;7.05;2.70;;;;;;;14.37;100.00;100782.19;5009380;28;20454;-60
2023/07/30 00:11:07;;;;;;;6.40;2.72;;;;;;;14.38;100.00;100782.22;5009435;28;20038;-60
2023/07/30 00:13:32;;;;;;;5.35;2.35;;;;;;;14.41;100.00;100776.16;5008754;28;20386;-61
2023/07/30 00:15:57;;;;;;;6.22;2.67;;;;;;;14.40;100.00;100777.91;5009373;28;20030;-60
2023/07/30 00:18:23;;;;;;;9.73;2.72;;;;;;;14.45;100.00;100782.28;5008499;28;20466;-59
2023/07/30 00:20:48;;;;;;;5.85;2.75;;;;;;;14.43;100.00;100778.81;5009279;28;20080;-60
2023/07/30 00:23:13;;;;;;;6.25;2.60;;;;;;;14.42;100.00;100777.91;5009042;28;20025;-60
2023/07/30 00:25:39;;;;;;;4.68;2.38;;;;;;;14.40;100.00;100783.13;5009417;28;20107;-61
2023/07/30 00:28:04;;;;;;;8.63;2.83;;;;;;;14.39;100.00;100770.91;5009075;28;20021;-60
2023/07/30 00:30:29;;;;;;;5.85;2.72;;;;;;;14.36;100.00;100770.88;5008502;28;20510;-60
2023/07/30 00:32:54;;;;;;;6.72;2.25;;;;;;;14.36;100.00;100776.09;5008944;28;20539;-60
2023/07/30 00:35:20;;;;;;;6.35;2.80;;;;;;;14.33;100.00;100776.06;5009118;28;20036;-60
2023/07/30 00:37:45;;;;;;;7.57;3.10;;;;;;;14.31;100.00;100782.97;5008935;28;20059;-61
2023/07/30 00:40:11;;;;;;;6.30;2.72;;;;;;;14.30;100.00;100783.84;5008585;28;20029;-60
2023/07/30 00:42:36;;;;;;;5.88;2.55;;;;;;;14.30;100.00;100781.22;5008139;28;20069;-60
2023/07/30 00:45:03;;;;;;;7.32;2.45;;;;;;;14.26;100.00;100780.31;5008991;28;20029;-60
2023/07/30 00:47:28;;;;;;;5.70;2.80;;;;;;;14.24;100.00;100781.13;5008399;28;20079;-60
2023/07/30 00:49:53;;;;;;;9.32;2.90;;;;;;;14.20;100.00;100780.19;5008516;28;20034;-60
2023/07/30 00:52:21;;;;;;;7.32;2.78;;;;;;;14.17;100.00;100786.22;5008502;28;20034;-61
2023/07/30 00:54:48;;;;;;;8.05;3.42;;;;;;;14.15;100.00;100789.66;5008195;28;20087;-60
2023/07/30 00:57:14;;;;;;;9.73;3.28;;;;;;;14.10;100.00;100787.00;5008188;28;20053;-61
2023/07/30 00:59:39;;;;;;;10.13;3.08;;;;;;;14.13;100.00;100794.84;5007294;28;20030;-60
2023/07/30 01:02:04;;;;;;;9.02;3.50;;;;;;;14.12;100.00;100792.22;5008190;28;20394;-60
2023/07/30 01:04:30;;;;;;;8.20;3.60;;;;;;;14.10;100.00;100793.94;5008788;28;20049;-60
2023/07/30 01:06:55;;;;;;;5.75;3.08;;;;;;;14.06;100.00;100798.22;5007699;28;20030;-60
2023/07/30 01:09:22;;;;;;;7.32;3.03;;;;;;;14.04;100.00;100798.19;5008758;28;20359;-60
2023/07/30 01:11:48;;;;;;;6.40;3.15;;;;;;;14.04;100.00;100799.91;5008529;28;20022;-60
2023/07/30 01:14:14;;;;;;;11.25;3.50;;;;;;;13.98;100.00;100810.19;5008233;28;20109;-60
2023/07/30 01:16:40;;;;;;;6.45;2.90;;;;;;;14.00;100.00;100817.22;5007550;28;20073;-61
2023/07/30 01:19:07;;;;;;;5.50;2.58;;;;;;;14.04;100.00;100812.94;5008390;28;20037;-60
2023/07/30 01:21:36;;;;;;;7.55;3.95;;;;;;;14.05;100.00;100817.28;5008131;28;20173;-60
2023/07/30 01:24:02;;;;;;;7.95;3.13;;;;;;;14.07;100.00;100815.56;5007777;28;20030;-60
2023/07/30 01:26:32;;;;;;;10.55;3.63;;;;;;;14.08;100.00;100812.13;5007148;28;20269;-61
2023/07/30 01:29:01;;;;;;;7.60;2.95;;;;;;;14.11;100.00;100811.28;5007932;28;20429;-60
2023/07/30 01:31:30;;;;;;;9.63;2.80;;;;;;;14.09;100.00;100819.09;5007979;28;20018;-60
2023/07/30 01:33:56;;;;;;;8.98;3.05;;;;;;;14.10;100.00;100815.66;5007783;28;20037;-60
2023/07/30 01:36:22;;;;;;;8.00;2.70;;;;;;;14.13;100.00;100820.03;5007938;28;20053;-62
2023/07/30 01:38:50;;;;;;;5.32;2.53;;;;;;;14.12;100.00;100824.34;5008317;28;20123;-61
2023/07/30 01:41:15;;;;;;;6.13;2.58;;;;;;;14.12;100.00;100823.50;5007880;28;20022;-60
2023/07/30 01:43:40;;;;;;;8.95;3.40;;;;;;;14.08;100.00;100826.88;5007103;28;20029;-61
2023/07/30 01:46:06;;;;;;;8.05;3.70;;;;;;;14.07;100.00;100820.78;4995387;28;20022;-60
2023/07/30 01:48:31;;;;;;;9.57;3.50;;;;;;;14.05;100.00;100819.88;5008145;28;20022;-60
2023/07/30 01:50:56;;;;;;;10.90;3.17;;;;;;;14.04;100.00;100826.84;5007898;28;20044;-60
2023/07/30 01:53:22;;;;;;;10.23;3.33;;;;;;;14.03;100.00;100832.03;5008018;28;20148;-60
2023/07/30 01:55:47;;;;;;;6.50;3.15;;;;;;;14.01;100.00;100828.50;5007726;28;20053;-61
2023/07/30 01:58:13;;;;;;;6.65;2.85;;;;;;;14.02;100.00;100822.44;5007337;28;20073;-60
2023/07/30 02:00:38;;;;;;;6.90;2.85;;;;;;;14.03;100.00;100830.28;5008009;28;20064;-60
2023/07/30 02:03:04;;;;;;;7.22;3.80;;;;;;;14.01;100.00;100831.13;5008138;28;20033;-60
2023/07/30 02:05:29;;;;;;;8.68;3.15;;;;;;;14.03;100.00;100835.50;5007014;28;20507;-60
2023/07/30 02:07:54;;;;;;;5.85;3.22;;;;;;;14.02;100.00;100833.75;5007813;28;20444;-60
2023/07/30 02:10:20;;;;;;;9.10;3.85;;;;;;;14.03;100.00;100834.63;5007819;28;20072;-59
2023/07/30 02:12:45;;;;;;;6.78;2.70;;;;;;;13.99;100.00;100828.50;5008090;28;20120;-61
2023/07/30 02:15:10;;;;;;;10.02;3.15;;;;;;;13.99;100.00;100828.50;5007958;28;20471;-59
2023/07/30 02:17:36;;;;;;;10.68;3.40;;;;;;;13.97;100.00;100829.31;5009586;28;20148;-60
2023/07/30 02:20:01;;;;;;;11.30;3.65;;;;;;;13.98;100.00;100825.84;5011410;28;20025;-60
2023/07/30 02:22:26;;;;;;;9.13;4.07;;;;;;;13.91;100.00;100825.75;5011430;28;20026;-60
2023/07/30 02:24:51;;;;;;;9.77;3.22;;;;;;;13.93;100.00;100818.84;5011246;28;20036;-60
2023/07/30 02:27:17;;;;;;;7.80;3.13;;;;;;;13.96;100.00;100817.13;5011364;28;20473;-60
2023/07/30 02:29:42;;;;;;;6.78;3.60;;;;;;;13.98;100.00;100805.88;5011128;28;20028;-61
2023/07/30 02:32:09;;;;;;;10.43;3.30;;;;;;;13.99;100.00;100818.06;5011199;28;20038;-60
2023/07/30 02:34:34;;;;;;;10.40;3.97;;;;;;;14.01;100.00;100816.34;5010894;28;20036;-61
2023/07/30 02:36:59;;;;;;;12.88;3.67;;;;;;;14.04;100.00;100812.94;5011426;28;20017;-60
2023/07/30 02:39:24;;;;;;;14.80;3.88;;;;;;;14.03;100.00;100816.41;5010749;28;20028;-60
2023/07/30 02:41:49;;;;;;;12.57;4.53;;;;;;;14.03;100.00;100813.78;5010650;28;20092;-60
2023/07/30 02:44:15;;;;;;;12.65;4.30;;;;;;;14.01;100.00;100810.28;5010998;28;20144;-60
2023/07/30 02:46:40;;;;;;;12.45;4.15;;;;;;;14.03;100.00;100814.66;5010937;28;20030;-60
2023/07/30 02:49:05;;;;;;;13.35;4.40;;;;;;;14.04;100.00;100811.22;5010390;28;20396;-60
2023/07/30 02:51:31;;;;;;;8.23;3.85;;;;;;;14.07;100.00;100815.56;5010904;28;20097;-61
2023/07/30 02:54:04;;;;;;;13.77;5.07;;;;;;;14.07;100.00;100814.72;5010923;28;20101;-60
2023/07/30 02:56:29;;;;;;;11.10;4.38;;;;;;;14.08;100.00;100811.25;5010203;28;20041;-60
2023/07/30 02:58:54;;;;;;;12.20;4.75;;;;;;;14.08;100.00;100821.69;5009847;28;20022;-60
2023/07/30 03:01:19;;;;;;;10.13;5.25;;;;;;;14.09;100.00;100816.50;5010602;28;20026;-60
2023/07/30 03:03:45;;;;;;;11.55;4.45;;;;;;;14.12;100.00;100819.13;5010473;28;20476;-61
2023/07/30 03:06:10;;;;;;;8.57;3.80;;;;;;;14.13;100.00;100820.03;5010433;28;20046;-60
2023/07/30 03:08:36;;;;;;;10.75;4.75;;;;;;;14.14;100.00;100819.16;5010170;28;20501;-60
2023/07/30 03:11:01;;;;;;;9.55;4.13;;;;;;;14.11;100.00;100819.13;5010109;28;20080;-60
2023/07/30 03:13:26;;;;;;;10.00;4.78;;;;;;;14.11;100.00;100826.94;5010350;28;20013;-60
2023/07/30 03:15:51;;;;;;;10.07;4.95;;;;;;;14.08;100.00;100830.38;5010674;28;20135;-61
2023/07/30 03:18:17;;;;;;;20.05;6.15;;;;;;;14.05;100.00;100827.69;5010452;28;20022;-60
2023/07/30 03:20:42;;;;;;;12.55;6.03;;;;;;;14.10;100.00;100826.06;5010317;28;20026;-60
2023/07/30 03:23:07;;;;;;;13.02;5.40;;;;;;;14.13;100.00;100826.13;5009642;28;20394;-60
2023/07/30 03:25:32;;;;;;;12.48;4.55;;;;;;;14.13;100.00;100826.13;5009744;28;20022;-60
2023/07/30 03:27:58;;;;;;;9.68;4.63;;;;;;;14.14;100.00;100817.44;5009646;28;20094;-60
2023/07/30 03:30:23;;;;;;;11.70;5.43;;;;;;;14.15;100.00;100818.31;5009723;28;20144;-60
2023/07/30 03:32:48;;;;;;;12.20;4.95;;;;;;;14.16;100.00;100823.56;5009521;28;20029;-60
2023/07/30 03:35:14;;;;;;;12.02;4.60;;;;;;;14.12;100.00;100824.34;5010166;28;20394;-60
2023/07/30 03:37:39;;;;;;;13.52;5.13;;;;;;;14.10;100.00;100820.88;5009924;28;20014;-60
2023/07/30 03:40:05;;;;;;;11.07;4.80;;;;;;;14.12;100.00;100828.72;5009886;28;20037;-60
2023/07/30 03:42:30;;;;;;;10.88;4.45;;;;;;;14.14;100.00;100830.47;5009190;28;20513;-60
2023/07/30 03:44:55;;;;;;;10.05;4.38;;;;;;;14.11;100.00;100822.59;5009732;28;20037;-60
2023/07/30 03:47:21;;;;;;;11.52;4.57;;;;;;;14.10;100.00;100831.28;5009833;28;20033;-60
2023/07/30 03:49:46;;;;;;;14.20;4.25;;;;;;;14.16;100.00;100841.81;5009477;28;20026;-60
2023/07/30 03:52:11;;;;;;;9.75;4.07;;;;;;;14.19;100.00;100840.09;5009191;28;20026;-60
2023/07/30 03:54:36;;;;;;;15.68;4.55;;;;;;;14.20;100.00;100837.53;5009659;28;20530;-60
2023/07/30 03:57:02;;;;;;;9.32;3.40;;;;;;;14.24;100.00;100848.88;5007568;28;20037;-61
2023/07/30 03:59:28;;;;;;;11.63;4.15;;;;;;;14.24;100.00;100846.28;5008401;28;20104;-60
2023/07/30 04:01:53;;;;;;;10.60;4.07;;;;;;;14.25;100.00;100848.00;5008188;28;20058;-61
2023/07/30 04:04:19;;;;;;;14.38;5.10;;;;;;;14.22;100.00;100841.03;5008115;28;20018;-61
2023/07/30 04:06:44;;;;;;;10.43;3.95;;;;;;;14.20;100.00;100841.84;5007104;28;20033;-61
2023/07/30 04:09:09;;;;;;;14.60;5.60;;;;;;;14.23;100.00;100849.75;5008542;28;20544;-60
2023/07/30 04:11:34;;;;;;;15.35;5.25;;;;;;;14.23;100.00;100847.13;5009084;28;20022;-60
2023/07/30 04:14:00;;;;;;;15.55;5.40;;;;;;;14.22;100.00;100846.25;5009556;28;20087;-60
2023/07/30 04:16:25;;;;;;;13.02;4.78;;;;;;;14.22;100.00;100846.25;5009114;28;20034;-60
2023/07/30 04:18:50;;;;;;;21.88;5.30;;;;;;;14.22;100.00;100845.34;5009047;28;20022;-61
2023/07/30 04:21:15;;;;;;;14.50;5.60;;;;;;;14.23;100.00;100841.91;5009233;28;20041;-60
2023/07/30 04:23:41;;;;;;;17.02;5.40;;;;;;;14.24;100.00;100846.28;5009622;28;20109;-60
2023/07/30 04:26:06;;;;;;;10.73;4.75;;;;;;;14.24;100.00;100851.47;5008665;28;20029;-61
2023/07/30 04:28:31;;;;;;;17.00;5.50;;;;;;;14.26;100.00;100848.06;5009558;28;20022;-60
2023/07/30 04:30:57;;;;;;;13.52;5.50;;;;;;;14.28;100.00;100855.91;5008422;28;20104;-60
2023/07/30 04:33:22;;;;;;;16.02;6.95;;;;;;;14.29;100.00;100858.53;5009463;28;20037;-60
2023/07/30 04:35:47;;;;;;;12.73;5.85;;;;;;;14.32;100.00;100844.66;5008526;28;20378;-60
2023/07/30 04:38:13;;;;;;;17.67;6.35;;;;;;;14.34;100.00;100853.38;5008915;28;20017;-60
2023/07/30 04:40:39;;;;;;;15.25;5.43;;;;;;;14.35;100.00;100846.44;5007448;28;20152;-60
2023/07/30 04:43:04;;;;;;;18.98;6.95;;;;;;;14.34;100.00;100848.16;5008419;28;20034;-61
2023/07/30 04:45:29;;;;;;;13.77;6.65;;;;;;;14.36;100.00;100848.19;5008792;28;20553;-61
2023/07/30 04:47:56;;;;;;;15.10;6.80;;;;;;;14.40;100.00;100844.78;5008934;28;20080;-60
2023/07/30 04:50:21;;;;;;;20.52;6.82;;;;;;;14.42;100.00;100848.31;5008872;28;20041;-60
2023/07/30 04:52:46;;;;;;;13.70;6.50;;;;;;;14.40;100.00;100848.28;5008220;28;20022;-60
2023/07/30 04:55:12;;;;;;;15.50;6.03;;;;;;;14.44;100.00;100846.59;5008343;28;20030;-59
2023/07/30 04:57:37;;;;;;;15.90;6.32;;;;;;;14.49;100.00;100854.50;5008694;28;20149;-60
2023/07/30 05:00:03;;;;;;;16.23;6.63;;;;;;;14.53;100.00;100848.47;5008385;28;20204;-60
2023/07/30 05:02:28;;;;;;;15.07;6.75;;;;;;;14.49;100.00;100849.28;5008436;28;20204;-60
2023/07/30 05:04:53;;;;;;;13.70;6.53;;;;;;;14.55;100.00;100853.72;5008738;28;20029;-60
2023/07/30 05:07:19;;;;;;;16.58;6.05;;;;;;;14.58;100.00;100865.06;5008679;28;20485;-61
2023/07/30 05:09:44;;;;;;;16.13;6.40;;;;;;;14.59;100.00;100861.59;5008553;28;20041;-60
2023/07/30 05:12:09;;;;;;;19.20;7.80;;;;;;;14.59;100.00;100872.03;5008331;28;20026;-60
2023/07/30 05:14:34;;;;;;;17.15;6.57;;;;;;;14.61;100.00;100865.13;5005872;28;20406;-60
2023/07/30 05:17:00;;;;;;;17.52;7.18;;;;;;;14.63;100.00;100879.06;5003674;28;20026;-60
2023/07/30 05:19:25;;;;;;;15.82;6.28;;;;;;;14.66;100.00;100878.22;5006531;28;20508;-60
2023/07/30 05:21:50;;;;;;;19.17;7.00;;;;;;;14.66;100.00;100878.22;4992587;28;20281;-61
2023/07/30 05:24:15;;;;;;;15.38;6.47;;;;;;;14.67;100.00;100879.09;4990227;28;20034;-60
2023/07/30 05:26:41;;;;;;;17.58;6.22;;;;;;;14.70;100.00;100880.03;4995246;28;20397;-59
2023/07/30 05:29:06;;;;;;;19.73;7.40;;;;;;;14.70;100.00;100880.03;5005987;28;20026;-60
2023/07/30 05:31:31;;;;;;;15.05;7.28;;;;;;;14.68;100.00;100883.47;5006933;28;20033;-61
2023/07/30 05:33:57;;;;;;;15.52;6.40;;;;;;;14.70;100.00;100885.25;4996775;28;20132;-60
2023/07/30 05:36:22;;;;;;;15.40;6.60;;;;;;;14.71;100.00;100883.50;4999166;28;20038;-60
2023/07/30 05:38:47;;;;;;;19.80;7.35;;;;;;;14.74;100.00;100875.72;5007971;28;20127;-60
2023/07/30 05:41:12;;;;;;;15.55;6.28;;;;;;;14.73;100.00;100871.38;5007829;28;20112;-61
2023/07/30 05:43:38;;;;;;;20.38;6.78;;;;;;;14.74;100.00;100875.72;5008223;28;20436;-61
2023/07/30 05:46:03;;;;;;;16.88;6.68;;;;;;;14.76;100.00;100869.69;5002071;28;20088;-60
2023/07/30 05:48:28;;;;;;;18.25;6.15;;;;;;;14.79;100.00;100874.06;4994772;28;20461;-61
2023/07/30 05:50:53;;;;;;;13.30;6.43;;;;;;;14.83;100.00;100878.53;4995577;28;20029;-60
2023/07/30 05:53:19;;;;;;;18.65;6.38;;;;;;;14.85;100.00;100869.00;4993069;28;20168;-60
2023/07/30 05:55:44;;;;;;;15.65;6.40;;;;;;;14.86;100.00;100875.94;5008469;28;20100;-60
2023/07/30 05:58:09;;;;;;;16.98;6.78;;;;;;;14.92;100.00;100879.50;5010627;28;20053;-61
2023/07/30 06:00:35;;;;;;;15.52;6.53;;;;;;;14.96;100.00;100883.91;5010739;28;20584;-60
2023/07/30 06:03:00;;;;;;;15.18;6.15;;;;;;;14.98;100.00;100885.72;5007533;28;20083;-61
2023/07/30 06:05:26;;;;;;;22.73;7.07;;;;;;;15.02;100.00;100889.22;4991957;28;20049;-60
2023/07/30 06:07:51;;;;;;;19.27;6.68;;;;;;;15.06;100.00;100888.41;4997986;28;20034;-60
2023/07/30 06:10:16;;;;;;;13.95;6.40;;;;;;;15.10;100.00;100887.59;4997713;28;20561;-60
2023/07/30 06:12:42;;;;;;;19.75;6.95;;;;;;;15.13;100.00;100887.63;4996938;28;20045;-60
2023/07/30 06:15:08;;;;;;;20.90;7.55;;;;;;;15.17;100.00;100890.28;5005168;28;20033;-61
2023/07/30 06:17:34;;;;;;;17.33;6.68;;;;;;;15.22;100.00;100893.81;4999973;28;20048;-61
2023/07/30 06:19:59;;;;;;;18.00;6.22;;;;;;;15.20;100.00;100888.59;4996184;28;20030;-61
2023/07/30 06:22:24;;;;;;;19.90;6.47;;;;;;;15.24;100.00;100889.50;4993595;28;20034;-60
2023/07/30 06:24:50;;;;;;;20.23;6.25;;;;;;;15.27;100.00;100893.91;4997478;28;20477;-60
2023/07/30 06:27:15;;;;;;;19.08;7.00;;;;;;;15.24;100.00;100892.13;4990811;28;20081;-61
2023/07/30 06:29:40;;;;;;;21.13;6.80;;;;;;;15.29;100.00;100895.66;4994907;28;20092;-61
2023/07/30 06:32:06;;;;;;;13.02;5.78;;;;;;;15.34;100.00;100888.78;4993528;28;20133;-61
2023/07/30 06:34:31;;;;;;;18.42;7.57;;;;;;;15.38;100.00;100894.91;4994987;28;20030;-59
2023/07/30 06:36:56;;;;;;;19.33;6.72;;;;;;;15.43;100.00;100897.59;4993079;28;20113;-61
2023/07/30 06:39:22;;;;;;;22.35;6.75;;;;;;;15.45;100.00;100891.53;4995082;28;20382;-60
2023/07/30 06:41:47;;;;;;;15.57;6.43;;;;;;;15.52;100.00;100894.22;4995195;28;20034;-60
2023/07/30 06:44:12;;;;;;;14.23;5.50;;;;;;;15.48;100.00;100895.91;5005916;28;20029;-61
2023/07/30 06:46:38;;;;;;;21.20;7.57;;;;;;;15.45;100.00;100893.28;5006009;28;20037;-60
2023/07/30 06:49:03;;;;;;;20.10;7.28;;;;;;;15.45;100.00;100890.66;5006546;28;20116;-60
2023/07/30 06:51:29;;;;;;;14.27;5.70;;;;;;;15.53;100.00;100888.13;4998413;28;20156;-60
2023/07/30 06:53:55;;;;;;;18.23;5.60;;;;;;;15.58;100.00;100892.56;5003809;28;20045;-60
2023/07/30 06:56:20;;;;;;;12.88;5.57;;;;;;;15.64;100.00;100893.47;4997263;28;20050;-60
2023/07/30 06:58:45;;;;;;;15.77;6.55;;;;;;;15.79;100.00;100895.41;5004593;28;20044;-60
2023/07/30 07:01:10;;;;;;;18.17;5.57;;;;;;;15.91;100.00;100892.94;5002873;28;20998;-60
2023/07/30 07:03:36;;;;;;;14.90;5.45;;;;;;;15.99;100.00;100895.63;5002375;28;20065;-61
2023/07/30 07:06:01;;;;;;;13.20;5.07;;;;;;;16.08;100.00;100898.34;5004729;28;20474;-60
2023/07/30 07:08:27;;;;;;;15.60;5.05;;;;;;;16.19;100.00;100897.59;4992313;28;20037;-60
2023/07/30 07:10:52;;;;;;;15.45;4.47;;;;;;;16.23;100.00;100914.16;4993541;28;20030;-61
2023/07/30 07:13:17;;;;;;;16.77;5.22;;;;;;;16.28;100.00;100907.28;5002464;28;20075;-60
2023/07/30 07:15:43;;;;;;;12.55;4.18;;;;;;;16.32;100.00;100909.91;4999733;28;20071;-60
2023/07/30 07:18:09;;;;;;;17.70;4.78;;;;;;;16.23;100.00;100904.59;5000868;28;20033;-60
2023/07/30 07:20:35;;;;;;;15.77;5.00;;;;;;;16.20;100.00;100907.19;5004915;28;20616;-60
2023/07/30 07:23:00;;;;;;;15.98;4.50;;;;;;;16.23;100.00;100907.19;5009288;28;20068;-60
2023/07/30 07:25:26;;;;;;;16.08;4.82;;;;;;;16.36;100.00;100917.78;5008516;28;20390;-61
2023/07/30 07:27:51;;;;;;;14.20;5.05;;;;;;;16.44;100.00;100910.91;5009314;28;20061;-60
2023/07/30 07:30:16;;;;;;;20.42;4.55;;;;;;;16.54;100.00;100902.25;5008854;28;20026;-60
2023/07/30 07:32:41;;;;;;;12.38;4.45;;;;;;;16.83;100.00;100911.19;5009377;28;20040;-60
2023/07/30 07:35:07;;;;;;;17.67;4.47;;;;;;;16.99;100.00;100911.28;5008487;28;20454;-60
2023/07/30 07:37:33;;;;;;;13.32;3.72;;;;;;;17.20;100.00;100913.19;5006295;28;20028;-61
2023/07/30 07:39:58;;;;;;;18.35;4.60;;;;;;;17.44;100.00;100911.56;5005532;28;20101;-60
2023/07/30 07:42:24;;;;;;;12.48;3.47;;;;;;;17.59;100.00;100909.88;4997554;28;20068;-60
2023/07/30 07:44:49;;;;;;;17.75;4.13;;;;;;;17.68;100.00;100917.78;5006986;28;20390;-61
2023/07/30 07:47:15;;;;;;;13.65;4.18;;;;;;;17.68;100.00;100915.16;5001434;28;20022;-60
2023/07/30 07:49:40;;;;;;;16.15;4.15;;;;;;;17.61;100.00;100932.59;5008243;28;20033;-60
2023/07/30 07:52:06;;;;;;;15.30;3.90;;;;;;;17.45;100.00;100917.69;5004359;28;20462;-61
2023/07/30 07:54:31;;;;;;;12.10;4.00;;;;;;;17.22;100.00;100937.63;5002787;28;20038;-61
2023/07/30 07:56:57;;;;;;;15.82;3.88;;;;;;;17.07;100.00;100927.91;4998744;28;20045;-60
2023/07/30 07:59:24;;;;;;;14.85;4.63;;;;;;;16.96;100.00;100927.88;5008125;28;20112;-61
2023/07/30 08:01:49;;;;;;;11.57;3.30;;;;;;;17.09;100.00;100930.56;5007897;28;20084;-60
2023/07/30 08:04:14;;;;;;;17.17;4.10;;;;;;;17.25;100.00;100921.94;5007770;28;20025;-61
2023/07/30 08:06:39;;;;;;;16.88;4.35;;;;;;;17.32;100.00;100925.50;5008129;28;20474;-61
2023/07/30 08:09:05;;;;;;;13.63;3.67;;;;;;;17.33;100.00;100928.97;5006641;28;20090;-60
2023/07/30 08:11:30;;;;;;;13.35;3.53;;;;;;;17.45;100.00;100928.16;5004929;28;20030;-61
2023/07/30 08:13:56;;;;;;;12.05;3.33;;;;;;;17.48;100.00;100928.19;5007869;28;20040;-61
2023/07/30 08:16:22;;;;;;;10.73;3.13;;;;;;;17.50;100.00;100940.41;5008581;28;20025;-60
2023/07/30 08:18:47;;;;;;;13.10;3.13;;;;;;;17.56;100.00;100936.94;5008052;28;20052;-61
2023/07/30 08:21:13;;;;;;;11.25;3.38;;;;;;;17.59;100.00;100943.94;5007081;28;20087;-61
2023/07/30 08:23:38;;;;;;;13.73;3.25;;;;;;;17.57;100.00;100943.94;5008376;28;20386;-60
2023/07/30 08:26:03;;;;;;;13.60;3.05;;;;;;;17.59;100.00;100942.19;5006398;28;20052;-61
2023/07/30 08:28:29;;;;;;;11.90;3.05;;;;;;;17.62;100.00;100946.56;5008859;28;20100;-60
2023/07/30 08:30:59;;;;;;;8.40;3.25;;;;;;;17.51;100.00;100944.78;5008694;28;20025;-62
2023/07/30 08:33:26;;;;;;;10.27;2.75;;;;;;;17.52;100.00;100943.91;5007002;28;20088;-61
2023/07/30 08:35:55;;;;;;;16.08;4.38;;;;;;;17.42;100.00;100939.50;5006219;28;20014;-60
2023/07/30 08:38:21;;;;;;;13.98;3.35;;;;;;;17.38;100.00;100938.59;5006709;28;20029;-61
2023/07/30 08:40:46;;;;;;;10.50;3.10;;;;;;;17.40;100.00;100941.22;5006430;28;20374;-61
2023/07/30 08:43:12;;;;;;;11.75;3.42;;;;;;;17.32;100.00;100943.81;5006771;28;20478;-61
2023/07/30 08:45:37;;;;;;;14.65;3.10;;;;;;;17.34;100.00;100946.44;5006126;28;20029;-61
2023/07/30 08:48:03;;;;;;;14.07;3.70;;;;;;;17.34;100.00;100944.69;5006045;28;20108;-60
2023/07/30 08:50:29;;;;;;;16.02;3.47;;;;;;;17.41;100.00;100932.53;5008006;28;20450;-60
2023/07/30 08:52:55;;;;;;;12.25;3.53;;;;;;;17.43;100.00;100949.09;5008586;28;20026;-60
2023/07/30 08:55:22;;;;;;;12.68;3.67;;;;;;;17.38;100.00;100940.34;5007759;28;20029;-60
2023/07/30 08:57:49;;;;;;;11.50;3.28;;;;;;;17.35;100.00;100951.69;5008565;28;20056;-61
2023/07/30 09:00:16;;;;;;;15.25;3.92;;;;;;;17.33;100.00;100944.69;5007773;28;20375;-61
2023/07/30 09:02:49;;;;;;;15.88;3.42;;;;;;;17.26;100.00;100947.28;5008161;28;20049;-60
2023/07/30 09:05:15;;;;;;;12.02;3.50;;;;;;;17.23;100.00;100944.66;5007995;28;20033;-61
2023/07/30 09:07:41;;;;;;;15.25;4.60;;;;;;;17.21;100.00;100951.63;5008322;28;20030;-60
2023/07/30 09:10:07;;;;;;;11.20;3.97;;;;;;;17.26;100.00;100947.28;5008117;28;20079;-60
2023/07/30 09:12:33;;;;;;;13.75;4.00;;;;;;;17.33;100.00;100944.69;5007413;28;20116;-61
2023/07/30 09:15:00;;;;;;;13.50;3.80;;;;;;;17.39;100.00;100940.38;5008053;28;20276;-60
2023/07/30 09:17:25;;;;;;;9.07;3.17;;;;;;;17.57;100.00;100943.06;5008203;28;20458;-61
2023/07/30 09:19:52;;;;;;;11.40;2.85;;;;;;;17.92;100.00;100944.06;5008449;28;20022;-60
2023/07/30 09:22:33;;;;;;;15.32;3.53;;;;;;;18.19;100.00;100932.78;5008239;28;20030;-61
2023/07/30 09:25:00;;;;;;;;;;;;;;;18.38;100.00;100932.81;5008762;28;20536;-60
2023/07/30 09:27:26;;;;;;;12.15;3.10;;;;;;;18.45;100.00;100929.34;5009781;28;19921;-61
2023/07/30 09:29:53;;;;;;;10.00;3.28;;;;;;;18.56;100.00;100936.34;5011732;28;20029;-61
2023/07/30 09:32:18;;;;;;;11.38;2.63;;;;;;;18.56;100.00;100936.34;5012064;28;20030;-60
2023/07/30 09:34:47;;;;;;;10.23;3.03;;;;;;;18.67;100.00;100912.72;5010985;28;20033;-61
2023/07/30 09:37:13;;;;;;;10.07;2.90;;;;;;;19.01;100.00;100924.91;5011758;28;20121;-61
2023/07/30 09:39:38;;;;;;;8.02;2.40;;;;;;;19.19;100.00;100935.41;5011485;28;20156;-61
2023/07/30 09:42:05;;;;;;;11.05;2.63;;;;;;;19.30;100.00;100937.16;5011823;28;20471;-61
2023/07/30 09:44:36;;;;;;;7.75;1.90;;;;;;;19.31;100.00;100934.50;5011037;28;20049;-61
2023/07/30 09:47:05;;;;;;;9.40;2.72;;;;;;;19.20;99.65;100931.03;5011705;28;20033;-61
2023/07/30 09:49:31;;;;;;;7.55;2.28;;;;;;;19.19;100.00;100938.03;5011520;28;20079;-61
2023/07/30 09:51:57;;;;;;;13.15;3.05;;;;;;;19.33;100.00;100939.75;5011200;28;20064;-62
2023/07/30 09:54:23;;;;;;;6.82;2.25;;;;;;;19.32;100.00;100938.00;5010982;28;20560;-61
2023/07/30 09:56:48;;;;;;;10.05;3.10;;;;;;;19.17;99.12;100945.06;5011399;28;20125;-61
2023/07/30 09:59:13;;;;;;;11.43;2.67;;;;;;;19.18;100.00;100949.41;5011283;28;20436;-60
2023/07/30 10:01:50;;;;;;;8.68;2.17;;;;;;;19.17;100.00;100952.94;5011607;28;20122;-61
2023/07/30 10:04:20;;;;;;;13.20;2.10;;;;;;;19.18;100.00;100956.41;4999684;28;20072;-60
2023/07/30 10:06:53;;;;;;;8.88;2.67;;;;;;;19.22;100.00;100952.91;5011067;28;20033;-60
2023/07/30 10:09:23;;;;;;;8.35;1.90;;;;;;;19.13;100.00;100952.94;5010930;28;20144;-61
2023/07/30 10:11:50;;;;;;;14.18;2.70;;;;;;;18.92;100.00;100959.94;5011025;28;20087;-61
2023/07/30 10:14:18;;;;;;;8.20;2.25;;;;;;;18.79;100.00;100961.69;5011317;28;20251;-61
2023/07/30 10:16:55;;;;;;;11.30;2.38;;;;;;;18.65;100.00;100957.34;5010588;28;20096;-61
2023/07/30 10:19:26;;;;;;;7.97;2.22;;;;;;;18.61;100.00;100955.56;5011201;28;20091;-60
2023/07/30 10:21:53;;;;;;;5.95;2.08;;;;;;;18.62;100.00;100962.56;5010725;28;20097;-60
2023/07/30 10:24:18;;;;;;;9.02;2.38;;;;;;;18.60;100.00;100961.72;5010427;28;20030;-61
2023/07/30 10:26:44;;;;;;;8.63;2.28;;;;;;;18.66;100.00;100969.56;5010769;28;20433;-60
2023/07/30 10:29:20;;;;;;;9.20;2.00;;;;;;;18.74;100.00;100979.19;5010813;28;20038;-61
2023/07/30 10:31:51;;;;;;;8.05;1.90;;;;;;;18.84;100.00;100963.44;5010915;28;20032;-61
2023/07/30 10:34:17;;;;;;;10.00;2.30;;;;;;;18.91;100.00;100972.19;5010436;28;20045;-61
2023/07/30 10:36:46;;;;;;;8.38;2.17;;;;;;;18.89;99.52;100976.56;5011055;28;20394;-61
2023/07/30 10:39:18;;;;;;;7.25;2.13;;;;;;;18.90;100.00;100986.19;5009647;28;20513;-61
2023/07/30 10:41:46;;;;;;;5.32;1.95;;;;;;;18.87;100.00;100988.78;5010633;28;20025;-61
2023/07/30 10:44:19;;;;;;;7.85;2.28;;;;;;;18.84;100.00;100994.94;5010573;28;20029;-62
2023/07/30 10:46:44;;;;;;;5.03;2.22;;;;;;;18.74;100.00;100998.44;5010643;28;20386;-61
2023/07/30 10:49:11;;;;;;;9.15;2.33;;;;;;;18.59;100.00;100996.69;5010243;28;20044;-61
2023/07/30 10:51:37;;;;;;;6.65;2.20;;;;;;;18.50;100.00;101004.53;5010396;28;20473;-60
2023/07/30 10:54:07;;;;;;;6.25;2.00;;;;;;;18.44;100.00;100995.78;5010557;28;20037;-60
2023/07/30 10:56:36;;;;;;;4.72;1.83;;;;;;;18.52;100.00;100990.56;5010340;28;20133;-60
2023/07/30 10:59:07;;;;;;;6.28;1.70;;;;;;;18.63;100.00;100990.56;5009855;28;20099;-60
2023/07/30 11:01:43;;;;;;;5.65;2.10;;;;;;;18.69;100.00;100989.69;5010511;28;20034;-60
2023/07/30 11:04:14;;;;;;;6.35;1.80;;;;;;;18.72;100.00;100987.94;4997976;28;20030;-61
2023/07/30 11:06:44;;;;;;;6.28;2.13;;;;;;;18.73;100.00;100986.19;5009963;28;20026;-61